createdAt,value
2023-04-07T00:01:46.405Z,50.01
2023-04-07T00:04:13.823Z,49.93
2023-04-07T00:06:43.644Z,50.90
2023-04-07T00:09:11.408Z,51.33
2023-04-07T00:11:38.445Z,51.48
2023-04-07T00:14:05.809Z,50.43
2023-04-07T00:16:32.906Z,51.33
2023-04-07T00:19:04.481Z,50.55
2023-04-07T00:21:33.631Z,51.27
2023-04-07T00:24:05.998Z,51.79
2023-04-07T00:26:35.571Z,50.70
2023-04-07T00:29:02.596Z,51.05
2023-04-07T00:31:32.610Z,51.83
2023-04-07T00:33:59.745Z,50.92
2023-04-07T00:36:27.092Z,50.35
2023-04-07T00:38:59.364Z,50.99
2023-04-07T00:41:26.295Z,50.26
2023-04-07T00:43:55.830Z,50.24
2023-04-07T00:46:26.467Z,50.47
2023-04-07T00:48:53.808Z,51.32
2023-04-07T00:51:22.694Z,50.99
2023-04-07T00:53:50.538Z,51.07
2023-04-07T00:56:17.546Z,51.00
2023-04-07T00:58:44.390Z,50.86
2023-04-07T01:01:27.763Z,50.43
2023-04-07T01:04:34.657Z,51.27
2023-04-07T01:07:12.024Z,50.40
2023-04-07T01:09:51.657Z,50.47
2023-04-07T01:12:39.358Z,50.51
2023-04-07T01:15:14.404Z,50.79
2023-04-07T01:17:46.918Z,51.29
2023-04-07T01:20:20.798Z,51.71
2023-04-07T01:22:54.572Z,51.14
2023-04-07T01:25:34.379Z,51.65
2023-04-07T01:28:14.684Z,51.40
2023-04-07T01:30:43.565Z,51.37
2023-04-07T01:33:12.240Z,51.06
2023-04-07T01:35:42.979Z,50.77
2023-04-07T01:38:10.963Z,51.02
2023-04-07T01:40:41.520Z,51.31
2023-04-07T01:43:09.251Z,50.30
2023-04-07T01:45:37.295Z,49.86
2023-04-07T01:48:07.630Z,50.07
2023-04-07T01:50:37.351Z,49.97
2023-04-07T01:53:05.165Z,49.50
2023-04-07T01:55:34.991Z,49.77
2023-04-07T01:58:10.676Z,50.14
2023-04-07T02:00:38.009Z,50.78
2023-04-07T02:03:21.242Z,50.29
2023-04-07T02:05:55.274Z,49.69
2023-04-07T02:08:27.759Z,50.37
2023-04-07T02:10:57.047Z,50.49
2023-04-07T02:13:30.174Z,49.92
2023-04-07T02:15:58.380Z,51.07
2023-04-07T02:18:28.030Z,50.36
2023-04-07T02:20:58.865Z,50.82
2023-04-07T02:23:26.152Z,50.81
2023-04-07T02:25:58.190Z,51.21
2023-04-07T02:28:27.932Z,51.21
2023-04-07T02:30:58.317Z,51.36
2023-04-07T02:33:25.638Z,51.25
2023-04-07T02:35:52.837Z,51.58
2023-04-07T02:38:22.009Z,51.07
2023-04-07T02:40:49.399Z,51.54
2023-04-07T02:43:17.665Z,51.66
2023-04-07T02:45:44.686Z,51.62
2023-04-07T02:48:13.877Z,51.72
2023-04-07T02:50:42.009Z,52.03
2023-04-07T02:53:10.370Z,52.28
2023-04-07T02:55:37.593Z,51.54
2023-04-07T02:58:07.259Z,51.22
2023-04-07T03:00:35.044Z,51.12
2023-04-07T03:03:05.861Z,51.04
2023-04-07T03:05:35.408Z,50.90
2023-04-07T03:08:02.564Z,50.63
2023-04-07T03:10:39.847Z,51.15
2023-04-07T03:13:08.557Z,51.48
2023-04-07T03:15:35.884Z,51.13
2023-04-07T03:18:03.143Z,50.75
2023-04-07T03:20:32.894Z,50.77
2023-04-07T03:23:00.534Z,50.71
2023-04-07T03:25:27.811Z,50.04
2023-04-07T03:27:57.183Z,51.17
2023-04-07T03:30:27.501Z,50.45
2023-04-07T03:32:56.995Z,50.16
2023-04-07T03:35:24.065Z,49.88
2023-04-07T03:37:53.164Z,49.86
2023-04-07T03:40:23.132Z,50.32
2023-04-07T03:42:52.741Z,49.84
2023-04-07T03:45:20.069Z,49.20
2023-04-07T03:47:47.563Z,49.83
2023-04-07T03:50:17.021Z,49.85
2023-04-07T03:52:44.471Z,49.90
2023-04-07T03:55:13.918Z,50.50
2023-04-07T03:57:40.955Z,49.62
2023-04-07T04:00:09.294Z,50.45
2023-04-07T04:02:39.088Z,50.13
2023-04-07T04:05:09.627Z,50.05
2023-04-07T04:07:36.879Z,49.67
2023-04-07T04:10:07.297Z,50.97
2023-04-07T04:12:37.045Z,51.01
2023-04-07T04:15:04.906Z,51.07
2023-04-07T04:17:34.804Z,51.44
2023-04-07T04:20:05.117Z,51.40
2023-04-07T04:22:32.274Z,51.26
2023-04-07T04:25:02.675Z,51.44
2023-04-07T04:27:31.995Z,51.09
2023-04-07T04:29:59.462Z,51.98
2023-04-07T04:32:31.198Z,51.25
2023-04-07T04:35:00.616Z,51.67
2023-04-07T04:37:30.043Z,51.80
2023-04-07T04:40:02.101Z,53.21
2023-04-07T04:42:33.855Z,53.29
2023-04-07T04:45:01.325Z,52.37
2023-04-07T04:47:28.360Z,52.04
2023-04-07T04:49:55.575Z,52.35
2023-04-07T04:52:22.636Z,51.03
2023-04-07T04:54:49.652Z,51.13
2023-04-07T04:57:17.003Z,51.86
2023-04-07T04:59:47.001Z,50.72
2023-04-07T05:02:14.028Z,52.07
2023-04-07T05:04:41.633Z,51.67
2023-04-07T05:07:08.644Z,51.04
2023-04-07T05:09:35.918Z,51.20
2023-04-07T05:12:03.058Z,50.74
2023-04-07T05:14:30.179Z,51.18
2023-04-07T05:17:00.999Z,51.27
2023-04-07T05:19:29.788Z,50.78
2023-04-07T05:21:56.724Z,50.45
2023-04-07T05:24:26.215Z,50.74
2023-04-07T05:26:57.173Z,50.50
2023-04-07T05:29:24.309Z,50.21
2023-04-07T05:31:55.967Z,49.82
2023-04-07T05:34:23.094Z,48.96
2023-04-07T05:36:50.121Z,49.89
2023-04-07T05:39:17.226Z,49.70
2023-04-07T05:41:44.183Z,48.48
2023-04-07T05:44:11.144Z,49.08
2023-04-07T05:46:40.384Z,48.50
2023-04-07T05:51:45.847Z,48.55
2023-04-07T05:54:13.726Z,49.63
2023-04-07T05:56:43.272Z,48.87
2023-04-07T05:59:17.214Z,48.70
2023-04-07T06:01:44.430Z,48.41
2023-04-07T06:04:14.198Z,49.01
2023-04-07T06:06:41.292Z,47.87
2023-04-07T06:09:08.487Z,47.71
2023-04-07T06:11:37.676Z,47.71
2023-04-07T06:14:04.618Z,47.98
2023-04-07T06:16:34.475Z,47.01
2023-04-07T06:19:01.862Z,46.72
2023-04-07T06:21:31.588Z,46.58
2023-04-07T06:24:02.217Z,45.97
2023-04-07T06:26:34.483Z,46.10
2023-04-07T06:29:01.632Z,46.96
2023-04-07T06:31:33.368Z,45.98
2023-04-07T06:34:02.577Z,46.16
2023-04-07T06:36:33.122Z,46.70
2023-04-07T06:39:05.310Z,46.15
2023-04-07T06:41:34.584Z,46.58
2023-04-07T06:44:04.701Z,46.17
2023-04-07T06:46:32.065Z,45.31
2023-04-07T06:49:01.712Z,45.22
2023-04-07T06:51:28.719Z,44.38
2023-04-07T06:53:56.123Z,44.97
2023-04-07T06:56:24.800Z,44.45
2023-04-07T06:58:51.753Z,43.68
2023-04-07T07:01:23.312Z,43.42
2023-04-07T07:03:50.713Z,42.61
2023-04-07T07:06:17.991Z,41.59
2023-04-07T07:08:47.512Z,40.97
2023-04-07T07:11:16.862Z,40.99
2023-04-07T07:13:45.178Z,41.13
2023-04-07T07:16:17.749Z,40.26
2023-04-07T07:18:47.020Z,40.28
2023-04-07T07:21:17.839Z,39.54
2023-04-07T07:23:47.471Z,39.04
2023-04-07T07:26:14.694Z,38.78
2023-04-07T07:28:41.649Z,38.59
2023-04-07T07:31:13.187Z,37.54
2023-04-07T07:33:41.710Z,36.79
2023-04-07T07:36:09.320Z,35.54
2023-04-07T07:38:37.741Z,35.41
2023-04-07T07:41:06.773Z,34.29
2023-04-07T07:43:37.156Z,32.28
2023-04-07T07:46:06.824Z,30.33
2023-04-07T07:48:33.912Z,31.90
2023-04-07T07:51:01.003Z,32.07
2023-04-07T07:53:30.701Z,30.76
2023-04-07T07:55:58.129Z,31.47
2023-04-07T07:58:25.527Z,31.74
2023-04-07T08:00:52.548Z,31.02
2023-04-07T08:03:24.708Z,32.17
2023-04-07T08:05:51.844Z,31.69
2023-04-07T08:08:18.893Z,30.28
2023-04-07T08:10:48.984Z,28.95
2023-04-07T08:13:16.255Z,28.15
2023-04-07T08:15:43.402Z,28.11
2023-04-07T08:18:12.715Z,27.72
2023-04-07T08:20:42.566Z,26.32
2023-04-07T08:23:12.237Z,24.82
2023-04-07T08:25:42.323Z,26.10
2023-04-07T08:28:09.283Z,27.08
2023-04-07T08:30:36.530Z,27.21
2023-04-07T08:33:06.271Z,25.71
2023-04-07T08:35:33.558Z,25.87
2023-04-07T08:38:03.565Z,26.92
2023-04-07T08:40:32.893Z,27.43
2023-04-07T08:43:01.515Z,26.31
2023-04-07T08:45:31.945Z,24.90
2023-04-07T08:48:07.950Z,22.81
2023-04-07T08:50:35.426Z,23.26
2023-04-07T08:53:12.022Z,23.62
2023-04-07T08:55:39.095Z,24.04
2023-04-07T08:58:06.249Z,24.85
2023-04-07T09:00:37.782Z,24.14
2023-04-07T09:03:05.233Z,24.67
2023-04-07T09:05:34.901Z,22.72
2023-04-07T09:08:06.737Z,21.48
2023-04-07T09:10:36.246Z,21.33
2023-04-07T09:13:03.344Z,20.68
2023-04-07T09:15:41.521Z,21.06
2023-04-07T09:18:10.968Z,21.06
2023-04-07T09:21:01.308Z,20.52
2023-04-07T09:23:30.598Z,20.39
2023-04-07T09:26:01.523Z,20.23
2023-04-07T09:28:49.066Z,20.69
2023-04-07T09:31:21.316Z,21.13
2023-04-07T09:33:51.835Z,20.92
2023-04-07T09:36:21.151Z,20.10
2023-04-07T09:38:48.152Z,19.29
2023-04-07T09:41:19.181Z,18.88
2023-04-07T09:43:47.640Z,19.78
2023-04-07T09:46:19.192Z,20.54
2023-04-07T09:48:48.607Z,20.69
2023-04-07T09:51:21.336Z,20.36
2023-04-07T09:53:56.559Z,19.21
2023-04-07T09:56:24.013Z,18.16
2023-04-07T09:58:52.106Z,17.93
2023-04-07T10:01:22.009Z,17.55
2023-04-07T10:03:50.933Z,17.88
2023-04-07T10:06:20.673Z,17.60
2023-04-07T10:08:50.026Z,18.70
2023-04-07T10:11:18.672Z,19.09
2023-04-07T10:13:46.206Z,18.25
2023-04-07T10:16:13.615Z,18.04
2023-04-07T10:18:46.599Z,19.10
2023-04-07T10:21:16.463Z,18.84
2023-04-07T10:24:24.482Z,16.71
2023-04-07T10:26:56.990Z,15.66
2023-04-07T10:29:32.134Z,15.53
2023-04-07T10:32:01.758Z,15.41
2023-04-07T10:34:50.496Z,16.16
2023-04-07T10:37:21.253Z,15.66
2023-04-07T10:40:21.579Z,16.00
2023-04-07T10:42:51.952Z,16.18
2023-04-07T10:45:54.292Z,16.16
2023-04-07T10:48:28.448Z,15.51
2023-04-07T10:51:12.550Z,16.95
2023-04-07T10:54:17.966Z,16.43
2023-04-07T10:57:03.255Z,16.04
2023-04-07T10:59:31.236Z,16.38
2023-04-07T11:02:16.586Z,15.51
2023-04-07T11:04:46.103Z,15.20
2023-04-07T11:07:15.803Z,14.92
2023-04-07T11:09:42.909Z,15.48
2023-04-07T11:12:22.721Z,14.66
2023-04-07T11:14:52.250Z,15.05
2023-04-07T11:17:21.697Z,16.11
2023-04-07T11:19:54.629Z,16.04
2023-04-07T11:22:29.971Z,16.45
2023-04-07T11:24:57.713Z,15.94
2023-04-07T11:27:24.723Z,15.49
2023-04-07T11:29:54.315Z,14.78
2023-04-07T11:32:26.166Z,14.99
2023-04-07T11:34:56.030Z,16.10
2023-04-07T11:37:31.380Z,16.12
2023-04-07T11:40:01.723Z,15.30
2023-04-07T11:42:37.405Z,15.60
2023-04-07T11:45:08.355Z,14.86
2023-04-07T11:47:38.650Z,13.94
2023-04-07T11:50:08.974Z,15.44
2023-04-07T11:52:44.880Z,15.18
2023-04-07T11:55:24.538Z,15.16
2023-04-07T11:57:52.470Z,14.42
2023-04-07T12:00:22.356Z,14.47
2023-04-07T12:02:49.725Z,15.32
2023-04-07T12:05:17.235Z,14.67
2023-04-07T12:07:54.618Z,14.50
2023-04-07T12:10:27.760Z,14.70
2023-04-07T12:12:55.238Z,14.27
2023-04-07T12:15:25.027Z,13.88
2023-04-07T12:17:52.040Z,14.70
2023-04-07T12:20:19.149Z,14.45
2023-04-07T12:22:46.354Z,14.37
2023-04-07T12:25:13.306Z,14.24
2023-04-07T12:27:43.906Z,14.65
2023-04-07T12:30:12.944Z,14.73
2023-04-07T12:32:42.782Z,14.98
2023-04-07T12:35:12.887Z,14.71
2023-04-07T12:37:40.003Z,14.61
2023-04-07T12:40:12.142Z,15.08
2023-04-07T12:42:41.744Z,15.73
2023-04-07T12:45:09.122Z,15.63
2023-04-07T12:47:38.307Z,15.40
2023-04-07T12:50:06.146Z,16.44
2023-04-07T12:52:33.383Z,16.80
2023-04-07T12:55:00.352Z,18.17
2023-04-07T12:57:27.660Z,18.46
2023-04-07T12:59:57.184Z,18.05
2023-04-07T13:02:26.837Z,17.58
2023-04-07T13:04:56.280Z,16.64
2023-04-07T13:07:23.552Z,17.60
2023-04-07T13:09:53.015Z,18.75
2023-04-07T13:12:24.928Z,19.77
2023-04-07T13:15:00.528Z,21.06
2023-04-07T13:17:29.063Z,21.22
2023-04-07T13:19:59.215Z,20.87
2023-04-07T13:22:26.282Z,20.77
2023-04-07T13:24:55.669Z,19.88
2023-04-07T13:27:25.018Z,19.78
2023-04-07T13:29:55.035Z,20.83
2023-04-07T13:32:22.080Z,19.88
2023-04-07T13:34:49.404Z,19.70
2023-04-07T13:37:19.607Z,20.11
2023-04-07T13:39:46.710Z,19.68
2023-04-07T13:42:17.500Z,19.08
2023-04-07T13:44:48.184Z,19.46
2023-04-07T13:47:19.451Z,19.76
2023-04-07T13:49:48.203Z,20.07
2023-04-07T13:52:19.855Z,21.02
2023-04-07T13:54:47.037Z,21.25
2023-04-07T13:57:20.545Z,22.59
2023-04-07T13:59:49.646Z,22.54
2023-04-07T14:02:17.300Z,23.73
2023-04-07T14:04:44.694Z,24.63
2023-04-07T14:07:14.258Z,24.78
2023-04-07T14:09:43.644Z,24.93
2023-04-07T14:12:10.737Z,25.61
2023-04-07T14:14:38.771Z,25.09
2023-04-07T14:17:08.253Z,25.44
2023-04-07T14:19:35.738Z,25.93
2023-04-07T14:22:08.182Z,27.52
2023-04-07T14:24:35.162Z,29.19
2023-04-07T14:27:04.013Z,30.21
2023-04-07T14:29:31.211Z,32.00
2023-04-07T14:32:00.807Z,31.92
2023-04-07T14:34:33.249Z,33.25
2023-04-07T14:37:03.510Z,33.59
2023-04-07T14:39:32.797Z,33.24
2023-04-07T14:42:02.206Z,33.71
2023-04-07T14:44:29.168Z,34.99
2023-04-07T14:46:56.297Z,34.36
2023-04-07T14:49:25.105Z,34.72
2023-04-07T14:51:55.199Z,35.13
2023-04-07T14:54:23.307Z,35.04
2023-04-07T14:56:50.639Z,35.23
2023-04-07T14:59:19.926Z,35.25
2023-04-07T15:01:47.040Z,35.29
2023-04-07T15:04:14.281Z,35.56
2023-04-07T15:06:47.302Z,34.95
2023-04-07T15:09:14.512Z,35.06
2023-04-07T15:11:46.566Z,34.68
2023-04-07T15:14:16.071Z,34.75
2023-04-07T15:16:50.283Z,34.98
2023-04-07T15:19:21.977Z,35.53
2023-04-07T15:21:53.578Z,36.38
2023-04-07T15:24:22.185Z,36.85
2023-04-07T15:26:52.646Z,37.27
2023-04-07T15:29:19.541Z,36.62
2023-04-07T15:31:48.996Z,37.08
2023-04-07T15:34:15.912Z,38.20
2023-04-07T15:36:42.850Z,39.10
2023-04-07T15:39:09.779Z,39.12
2023-04-07T15:41:38.362Z,40.39
2023-04-07T15:44:05.637Z,40.95
2023-04-07T15:46:32.763Z,41.88
2023-04-07T15:49:02.730Z,42.18
2023-04-07T15:51:34.866Z,41.93
2023-04-07T15:54:04.335Z,42.41
2023-04-07T15:56:31.299Z,42.76
2023-04-07T15:59:01.427Z,43.39
2023-04-07T16:01:28.932Z,44.32
2023-04-07T16:03:56.085Z,44.22
2023-04-07T16:06:27.947Z,44.75
2023-04-07T16:08:57.147Z,45.79
2023-04-07T16:11:24.125Z,46.07
2023-04-07T16:13:51.258Z,46.42
2023-04-07T16:16:21.496Z,47.09
2023-04-07T16:18:51.927Z,46.57
2023-04-07T16:21:18.914Z,47.49
2023-04-07T16:23:45.948Z,47.04
2023-04-07T16:26:13.154Z,48.19
2023-04-07T16:28:41.996Z,49.52
2023-04-07T16:31:09.015Z,49.93
2023-04-07T16:33:39.142Z,49.73
2023-04-07T16:36:11.582Z,50.93
2023-04-07T16:38:38.555Z,51.57
2023-04-07T16:41:08.259Z,52.02
2023-04-07T16:43:35.322Z,52.43
2023-04-07T16:46:08.032Z,52.15
2023-04-07T16:48:37.567Z,54.34
2023-04-07T16:51:04.876Z,54.26
2023-04-07T16:53:31.956Z,54.76
2023-04-07T16:55:58.993Z,54.00
2023-04-07T16:58:26.168Z,53.70
2023-04-07T17:00:55.500Z,55.60
2023-04-07T17:03:22.602Z,56.86
2023-04-07T17:05:54.243Z,57.17
2023-04-07T17:08:26.020Z,57.29
2023-04-07T17:10:53.001Z,58.17
2023-04-07T17:13:22.771Z,59.17
2023-04-07T17:15:54.806Z,59.91
2023-04-07T17:18:24.704Z,58.90
2023-04-07T17:20:52.039Z,58.97
2023-04-07T17:23:21.690Z,59.86
2023-04-07T17:25:51.816Z,60.82
2023-04-07T17:28:21.086Z,60.54
2023-04-07T17:30:50.704Z,60.14
2023-04-07T17:33:19.853Z,61.26
2023-04-07T17:35:49.671Z,62.14
2023-04-07T17:38:16.958Z,61.48
2023-04-07T17:40:46.248Z,61.63
2023-04-07T17:43:13.294Z,62.37
2023-04-07T17:45:40.566Z,62.44
2023-04-07T17:48:12.036Z,61.74
2023-04-07T17:50:39.329Z,61.49
2023-04-07T17:53:06.606Z,61.66
2023-04-07T17:55:36.533Z,61.00
2023-04-07T17:58:06.540Z,61.13
2023-04-07T18:00:35.936Z,61.00
2023-04-07T18:03:05.820Z,61.73
2023-04-07T18:05:35.695Z,62.94
2023-04-07T18:08:03.159Z,62.91
2023-04-07T18:10:30.320Z,62.47
2023-04-07T18:12:57.561Z,62.31
2023-04-07T18:15:24.629Z,63.63
2023-04-07T18:17:53.236Z,62.05
2023-04-07T18:20:20.608Z,62.89
2023-04-07T18:22:50.905Z,62.82
2023-04-07T18:25:18.181Z,62.45
2023-04-07T18:27:47.304Z,64.21
2023-04-07T18:30:16.730Z,63.76
2023-04-07T18:32:44.573Z,64.60
2023-04-07T18:35:11.893Z,63.96
2023-04-07T18:37:38.948Z,64.45
2023-04-07T18:40:12.497Z,63.43
2023-04-07T18:42:42.893Z,63.46
2023-04-07T18:45:10.474Z,63.63
2023-04-07T18:47:37.647Z,63.66
2023-04-07T18:50:05.706Z,63.40
2023-04-07T18:52:35.189Z,63.98
2023-04-07T18:55:02.921Z,64.29
2023-04-07T18:57:29.912Z,65.05
2023-04-07T18:59:56.890Z,65.80
2023-04-07T19:02:24.167Z,65.27
2023-04-07T19:04:51.460Z,65.44
2023-04-07T19:07:21.051Z,64.62
2023-04-07T19:09:51.390Z,66.94
2023-04-07T19:12:20.791Z,66.10
2023-04-07T19:14:48.032Z,66.47
2023-04-07T19:17:15.096Z,67.18
2023-04-07T19:19:42.184Z,66.55
2023-04-07T19:22:09.234Z,67.01
2023-04-07T19:24:41.661Z,67.16
2023-04-07T19:27:14.020Z,68.10
2023-04-07T19:29:43.542Z,67.41
2023-04-07T19:32:13.085Z,66.61
2023-04-07T19:34:44.731Z,66.75
2023-04-07T19:37:14.205Z,68.01
2023-04-07T19:39:46.920Z,66.67
2023-04-07T19:42:21.722Z,67.43
2023-04-07T19:44:48.730Z,67.53
2023-04-07T19:47:18.064Z,67.19
2023-04-07T19:49:46.163Z,67.19
2023-04-07T19:52:13.262Z,66.90
2023-04-07T19:54:40.415Z,68.74
2023-04-07T19:57:07.601Z,69.27
2023-04-07T19:59:37.739Z,68.85
2023-04-07T20:02:07.220Z,69.68
2023-04-07T20:04:34.663Z,68.81
2023-04-07T20:07:02.398Z,69.20
2023-04-07T20:09:29.496Z,70.63
2023-04-07T20:11:59.539Z,70.81
2023-04-07T20:14:26.543Z,71.37
2023-04-07T20:16:54.210Z,70.83
2023-04-07T20:19:21.374Z,71.12
2023-04-07T20:21:50.593Z,71.34
2023-04-07T20:24:19.732Z,72.19
2023-04-07T20:26:46.742Z,73.59
2023-04-07T20:29:13.708Z,72.90
2023-04-07T20:31:41.259Z,72.84
2023-04-07T20:34:08.278Z,72.49
2023-04-07T20:36:37.759Z,72.35
2023-04-07T20:39:06.928Z,72.67
2023-04-07T20:41:34.034Z,71.53
2023-04-07T20:44:05.572Z,72.15
2023-04-07T20:46:33.477Z,72.89
2023-04-07T20:49:00.903Z,72.25
2023-04-07T20:51:30.652Z,72.38
2023-04-07T20:53:57.747Z,72.09
2023-04-07T20:56:24.725Z,73.46
2023-04-07T20:58:51.923Z,73.31
2023-04-07T21:01:18.853Z,72.84
2023-04-07T21:03:48.203Z,74.07
2023-04-07T21:06:17.853Z,73.99
2023-04-07T21:08:47.830Z,72.76
2023-04-07T21:11:15.096Z,74.85
2023-04-07T21:13:44.300Z,75.58
2023-04-07T21:16:11.556Z,75.55
2023-04-07T21:18:43.262Z,75.51
2023-04-07T21:21:10.463Z,76.36
2023-04-07T21:23:37.415Z,76.62
2023-04-07T21:26:04.593Z,77.10
2023-04-07T21:28:31.546Z,78.21
2023-04-07T21:31:03.963Z,78.70
2023-04-07T21:33:33.358Z,78.02
2023-04-07T21:36:03.919Z,78.79
2023-04-07T21:38:31.552Z,78.58
2023-04-07T21:40:58.585Z,77.92
2023-04-07T21:43:28.678Z,77.96
2023-04-07T21:45:57.900Z,77.63
2023-04-07T21:48:24.938Z,77.68
2023-04-07T21:50:55.030Z,77.17
2023-04-07T21:53:24.687Z,76.52
2023-04-07T21:55:56.508Z,75.99
2023-04-07T21:58:26.477Z,76.02
2023-04-07T22:00:54.126Z,76.27
2023-04-07T22:03:21.988Z,77.27
2023-04-07T22:05:49.261Z,77.34
2023-04-07T22:08:16.723Z,78.60
2023-04-07T22:10:43.919Z,77.92
2023-04-07T22:13:11.096Z,77.64
2023-04-07T22:15:40.968Z,77.34
2023-04-07T22:18:08.961Z,77.09
2023-04-07T22:20:36.153Z,76.73
2023-04-07T22:23:03.108Z,77.54
2023-04-07T22:25:30.116Z,77.07
2023-04-07T22:27:57.283Z,77.96
2023-04-07T22:30:24.727Z,78.12
2023-04-07T22:32:54.884Z,78.23
2023-04-07T22:35:21.913Z,77.45
2023-04-07T22:37:51.169Z,76.77
2023-04-07T22:40:18.215Z,76.87
2023-04-07T22:42:45.265Z,76.73
2023-04-07T22:45:17.903Z,77.22
2023-04-07T22:47:47.382Z,76.77
2023-04-07T22:50:14.563Z,76.79
2023-04-07T22:52:41.679Z,78.21
2023-04-07T22:55:09.107Z,76.90
2023-04-07T22:57:38.650Z,76.61
2023-04-07T23:00:06.815Z,77.56
2023-04-07T23:02:33.817Z,77.26
2023-04-07T23:05:01.099Z,78.02
2023-04-07T23:07:28.141Z,77.66
2023-04-07T23:09:55.412Z,78.31
2023-04-07T23:12:24.871Z,79.04
2023-04-07T23:14:52.631Z,78.23
2023-04-07T23:17:19.806Z,78.45
2023-04-07T23:19:46.801Z,78.76
2023-04-07T23:22:13.776Z,79.13
2023-04-07T23:24:41.611Z,78.91
2023-04-07T23:27:08.577Z,79.27
2023-04-07T23:29:36.205Z,79.55
2023-04-07T23:32:03.172Z,78.41
2023-04-07T23:34:30.403Z,78.93
2023-04-07T23:36:59.540Z,79.29
2023-04-07T23:39:26.648Z,78.88
2023-04-07T23:41:53.755Z,79.25
2023-04-07T23:44:20.942Z,80.47
2023-04-07T23:46:48.323Z,81.50
2023-04-07T23:49:15.321Z,80.50
2023-04-07T23:51:46.874Z,80.82
2023-04-07T23:54:13.941Z,79.28
2023-04-07T23:56:41.506Z,80.10
2023-04-07T23:59:08.504Z,79.44
